createdAt,value
2023-06-26T00:01:43.790Z,100.00
2023-06-26T00:06:37.205Z,100.00
2023-06-26T00:11:34.451Z,100.00
2023-06-26T00:16:27.882Z,100.00
2023-06-26T00:21:21.368Z,100.00
2023-06-26T00:26:14.771Z,100.00
2023-06-26T00:31:09.540Z,100.00
2023-06-26T00:36:02.945Z,100.00
2023-06-26T00:40:57.223Z,100.00
2023-06-26T00:45:50.774Z,100.00
2023-06-26T00:50:45.889Z,100.00
2023-06-26T00:55:39.358Z,100.00
2023-06-26T01:00:32.890Z,100.00
2023-06-26T01:05:26.310Z,100.00
2023-06-26T01:10:21.694Z,100.00
2023-06-26T01:15:15.145Z,100.00
2023-06-26T01:20:10.512Z,100.00
2023-06-26T01:25:19.832Z,100.00
2023-06-26T01:30:15.998Z,100.00
2023-06-26T01:35:11.707Z,100.00
2023-06-26T01:40:06.561Z,100.00
2023-06-26T01:45:04.324Z,100.00
2023-06-26T01:50:07.976Z,100.00
2023-06-26T01:55:11.171Z,100.00
2023-06-26T02:00:07.291Z,100.00
2023-06-26T02:05:02.028Z,100.00
2023-06-26T02:09:55.722Z,100.00
2023-06-26T02:14:49.057Z,100.00
2023-06-26T02:19:48.856Z,100.00
2023-06-26T02:24:43.737Z,100.00
2023-06-26T02:29:37.188Z,100.00
2023-06-26T02:34:31.541Z,100.00
2023-06-26T02:39:24.962Z,100.00
2023-06-26T02:44:19.687Z,100.00
2023-06-26T02:49:12.980Z,100.00
2023-06-26T02:54:06.607Z,100.00
2023-06-26T02:59:00.300Z,100.00
2023-06-26T03:03:55.045Z,100.00
2023-06-26T03:08:48.400Z,100.00
2023-06-26T03:13:41.703Z,100.00
2023-06-26T03:18:35.068Z,100.00
2023-06-26T03:23:29.930Z,100.00
2023-06-26T03:28:23.402Z,100.00
2023-06-26T03:33:16.805Z,100.00
2023-06-26T03:38:10.086Z,100.00
2023-06-26T03:43:04.904Z,100.00
2023-06-26T03:47:58.217Z,100.00
2023-06-26T03:52:52.616Z,100.00
2023-06-26T03:57:45.903Z,100.00
2023-06-26T04:02:40.748Z,100.00
2023-06-26T04:07:34.484Z,100.00
2023-06-26T04:12:27.878Z,100.00
2023-06-26T04:17:21.870Z,100.00
2023-06-26T04:22:16.566Z,100.00
2023-06-26T04:27:10.296Z,100.00
2023-06-26T04:32:04.391Z,100.00
2023-06-26T04:36:57.922Z,100.00
2023-06-26T04:41:53.568Z,100.00
2023-06-26T04:46:47.175Z,100.00
2023-06-26T04:51:41.754Z,100.00
2023-06-26T04:56:35.110Z,100.00
2023-06-26T05:01:31.093Z,100.00
2023-06-26T05:06:24.922Z,100.00
2023-06-26T05:11:18.288Z,100.00
2023-06-26T05:16:12.153Z,100.00
2023-06-26T05:21:08.775Z,100.00
2023-06-26T05:26:03.005Z,100.00
2023-06-26T05:30:57.590Z,100.00
2023-06-26T05:35:53.720Z,100.00
2023-06-26T05:40:49.842Z,100.00
2023-06-26T05:45:43.675Z,100.00
2023-06-26T05:50:38.454Z,100.00
2023-06-26T05:55:32.569Z,100.00
2023-06-26T06:00:29.678Z,100.00
2023-06-26T06:05:23.344Z,100.00
2023-06-26T06:10:16.706Z,100.00
2023-06-26T06:15:10.948Z,100.00
2023-06-26T06:20:07.649Z,100.00
2023-06-26T06:25:01.843Z,100.00
2023-06-26T06:29:55.150Z,100.00
2023-06-26T06:34:48.407Z,100.00
2023-06-26T06:39:43.142Z,100.00
2023-06-26T06:44:36.449Z,100.00
2023-06-26T06:49:30.011Z,100.00
2023-06-26T06:54:23.370Z,100.00
2023-06-26T06:59:18.119Z,100.00
2023-06-26T07:04:11.512Z,100.00
2023-06-26T07:09:05.116Z,100.00
2023-06-26T07:13:58.399Z,100.00
2023-06-26T07:18:53.256Z,100.00
2023-06-26T07:23:46.584Z,100.00
2023-06-26T07:28:40.117Z,100.00
2023-06-26T07:33:33.468Z,100.00
2023-06-26T07:38:28.107Z,100.00
2023-06-26T07:43:21.412Z,100.00
2023-06-26T07:48:14.698Z,100.00
2023-06-26T07:53:07.990Z,100.00
2023-06-26T07:58:03.386Z,100.00
2023-06-26T08:02:56.774Z,100.00
2023-06-26T08:07:50.095Z,100.00
2023-06-26T08:12:46.122Z,100.00
2023-06-26T08:17:41.368Z,97.15
2023-06-26T08:22:34.699Z,95.65
2023-06-26T08:27:28.173Z,93.44
2023-06-26T08:32:21.508Z,100.00
2023-06-26T08:37:16.950Z,95.61
2023-06-26T08:42:10.721Z,88.70
2023-06-26T08:47:06.787Z,89.34
2023-06-26T08:52:12.664Z,89.20
2023-06-26T08:57:17.417Z,84.75
2023-06-26T09:02:11.080Z,86.97
2023-06-26T09:07:04.761Z,81.50
2023-06-26T09:11:58.130Z,84.09
2023-06-26T09:16:53.021Z,81.85
2023-06-26T09:21:46.455Z,79.25
2023-06-26T09:26:45.018Z,79.43
2023-06-26T09:31:42.149Z,77.76
2023-06-26T09:36:40.038Z,76.79
2023-06-26T09:41:34.031Z,78.36
2023-06-26T09:46:28.910Z,77.04
2023-06-26T09:51:25.217Z,75.90
2023-06-26T09:56:20.486Z,75.61
2023-06-26T10:01:13.984Z,71.91
2023-06-26T10:06:11.306Z,68.76
2023-06-26T10:11:04.805Z,70.47
2023-06-26T10:16:02.836Z,68.65
2023-06-26T10:21:00.563Z,62.32
2023-06-26T10:25:57.644Z,60.19
2023-06-26T10:30:55.444Z,61.23
2023-06-26T10:35:50.629Z,62.33
2023-06-26T10:40:49.910Z,63.47
2023-06-26T10:45:53.196Z,61.41
2023-06-26T10:50:51.510Z,58.87
2023-06-26T10:55:49.331Z,58.24
2023-06-26T11:00:52.477Z,57.28
2023-06-26T11:05:45.892Z,55.50
2023-06-26T11:10:55.127Z,56.84
2023-06-26T11:15:52.730Z,58.22
2023-06-26T11:20:48.872Z,62.28
2023-06-26T11:25:44.544Z,59.62
2023-06-26T11:30:41.064Z,58.14
2023-06-26T11:35:35.055Z,58.31
2023-06-26T11:40:31.844Z,55.92
2023-06-26T11:45:25.960Z,56.04
2023-06-26T11:50:20.761Z,51.00
2023-06-26T11:55:14.189Z,50.66
2023-06-26T12:00:14.889Z,49.00
2023-06-26T12:05:10.430Z,51.38
2023-06-26T12:10:07.866Z,51.91
2023-06-26T12:15:02.046Z,48.90
2023-06-26T12:19:55.395Z,46.64
2023-06-26T12:24:50.299Z,51.40
2023-06-26T12:29:54.384Z,53.63
2023-06-26T12:34:52.233Z,53.25
2023-06-26T12:39:50.986Z,54.36
2023-06-26T12:44:45.998Z,54.38
2023-06-26T12:49:40.688Z,54.97
2023-06-26T12:54:36.388Z,55.72
2023-06-26T12:59:29.758Z,57.80
2023-06-26T13:04:24.814Z,58.48
2023-06-26T13:09:18.364Z,60.06
2023-06-26T13:14:12.362Z,60.15
2023-06-26T13:19:06.207Z,67.27
2023-06-26T13:24:01.286Z,65.05
2023-06-26T13:28:54.872Z,59.25
2023-06-26T13:33:50.874Z,60.64
2023-06-26T13:38:44.539Z,62.81
2023-06-26T13:43:39.766Z,64.40
2023-06-26T13:48:33.610Z,58.93
2023-06-26T13:53:26.948Z,61.91
2023-06-26T13:58:23.708Z,63.02
2023-06-26T14:03:18.977Z,60.93
2023-06-26T14:08:12.370Z,64.88
2023-06-26T14:13:06.284Z,61.17
2023-06-26T14:18:00.321Z,64.52
2023-06-26T14:22:55.167Z,64.94
2023-06-26T14:27:48.477Z,66.87
2023-06-26T14:32:41.923Z,69.25
2023-06-26T14:37:35.278Z,65.19
2023-06-26T14:42:29.969Z,63.97
2023-06-26T14:47:24.112Z,61.58
2023-06-26T14:52:17.970Z,63.27
2023-06-26T14:57:13.781Z,66.83
2023-06-26T15:02:11.195Z,66.07
2023-06-26T15:07:10.406Z,64.67
2023-06-26T15:12:04.108Z,61.28
2023-06-26T15:16:57.559Z,62.46
2023-06-26T15:21:52.293Z,59.79
2023-06-26T15:26:46.564Z,59.05
2023-06-26T15:31:39.892Z,56.45
2023-06-26T15:36:33.605Z,59.78
2023-06-26T15:41:28.451Z,57.84
2023-06-26T15:46:21.831Z,58.73
2023-06-26T15:51:16.729Z,58.71
2023-06-26T15:56:13.069Z,60.27
2023-06-26T16:01:08.586Z,63.94
2023-06-26T16:06:01.901Z,61.03
2023-06-26T16:10:56.101Z,59.24
2023-06-26T16:15:49.416Z,58.28
2023-06-26T16:20:44.428Z,60.04
2023-06-26T16:25:38.302Z,60.98
2023-06-26T16:30:31.884Z,60.56
2023-06-26T16:35:25.183Z,63.21
2023-06-26T16:40:19.939Z,61.79
2023-06-26T16:45:13.359Z,63.54
2023-06-26T16:50:08.347Z,62.32
2023-06-26T16:55:01.675Z,63.94
2023-06-26T16:59:56.799Z,62.25
2023-06-26T17:04:50.173Z,64.41
2023-06-26T17:09:43.536Z,62.81
2023-06-26T17:14:36.920Z,64.53
2023-06-26T17:19:32.792Z,64.70
2023-06-26T17:24:28.548Z,64.91
2023-06-26T17:29:22.240Z,64.63
2023-06-26T17:34:15.871Z,66.75
2023-06-26T17:39:10.694Z,67.59
2023-06-26T17:44:03.990Z,69.63
2023-06-26T17:48:57.296Z,68.50
2023-06-26T17:53:52.152Z,71.54
2023-06-26T17:58:49.808Z,73.68
2023-06-26T18:03:43.462Z,73.21
2023-06-26T18:08:37.364Z,72.29
2023-06-26T18:13:32.710Z,74.53
2023-06-26T18:18:27.405Z,74.51
2023-06-26T18:23:20.720Z,73.54
2023-06-26T18:28:15.079Z,75.40
2023-06-26T18:33:08.539Z,73.58
2023-06-26T18:38:06.439Z,73.76
2023-06-26T18:42:59.826Z,70.35
2023-06-26T18:47:53.572Z,69.15
2023-06-26T18:52:46.945Z,70.87
2023-06-26T18:57:41.777Z,71.08
2023-06-26T19:02:36.639Z,69.67
2023-06-26T19:07:30.438Z,70.99
2023-06-26T19:12:24.709Z,71.46
2023-06-26T19:17:19.710Z,70.16
2023-06-26T19:22:13.015Z,72.91
2023-06-26T19:27:06.719Z,69.69
2023-06-26T19:32:03.113Z,69.32
2023-06-26T19:36:57.815Z,69.23
2023-06-26T19:41:51.217Z,67.95
2023-06-26T19:46:44.517Z,67.06
2023-06-26T19:51:37.876Z,65.92
2023-06-26T19:56:32.712Z,66.41
2023-06-26T20:01:26.420Z,66.30
2023-06-26T20:06:19.791Z,71.20
2023-06-26T20:11:13.155Z,64.42
2023-06-26T20:16:08.304Z,67.15
2023-06-26T20:21:01.652Z,64.18
2023-06-26T20:25:55.044Z,66.43
2023-06-26T20:30:49.835Z,65.14
2023-06-26T20:35:44.544Z,62.76
2023-06-26T20:40:38.461Z,62.27
2023-06-26T20:45:33.013Z,65.03
2023-06-26T20:50:28.490Z,65.03
2023-06-26T20:55:24.468Z,64.36
2023-06-26T21:00:19.313Z,66.28
2023-06-26T21:05:12.820Z,66.04
2023-06-26T21:10:09.512Z,67.07
2023-06-26T21:15:05.053Z,68.85
2023-06-26T21:19:58.810Z,70.25
2023-06-26T21:24:52.495Z,71.71
2023-06-26T21:29:45.784Z,70.31
2023-06-26T21:34:40.515Z,70.97
2023-06-26T21:39:34.587Z,69.67
2023-06-26T21:44:27.905Z,68.94
2023-06-26T21:49:21.236Z,69.30
2023-06-26T21:54:15.940Z,66.66
2023-06-26T21:59:09.284Z,68.82
2023-06-26T22:04:02.613Z,67.00
2023-06-26T22:08:55.921Z,66.26
2023-06-26T22:13:50.600Z,67.26
2023-06-26T22:18:44.143Z,64.01
2023-06-26T22:23:37.444Z,65.60
2023-06-26T22:28:30.830Z,64.28
2023-06-26T22:33:25.922Z,64.54
2023-06-26T22:38:19.266Z,62.80
2023-06-26T22:43:12.581Z,65.37
2023-06-26T22:48:06.481Z,64.72
2023-06-26T22:53:01.864Z,61.67
2023-06-26T22:57:55.357Z,63.94
2023-06-26T23:02:48.839Z,66.37
2023-06-26T23:07:42.237Z,64.53
2023-06-26T23:12:37.055Z,64.20
2023-06-26T23:17:30.474Z,62.12
2023-06-26T23:22:23.947Z,67.26
2023-06-26T23:27:17.625Z,64.56
2023-06-26T23:32:15.879Z,63.59
2023-06-26T23:37:13.922Z,66.10
2023-06-26T23:42:08.272Z,63.66
2023-06-26T23:47:02.302Z,63.63
2023-06-26T23:51:57.209Z,63.80
2023-06-26T23:56:50.574Z,63.88
